createdAt,value
2018-03-21T00:01:35.789Z,99.90
2018-03-21T00:04:04.686Z,99.90
2018-03-21T00:06:33.540Z,99.90
2018-03-21T00:09:02.428Z,99.90
2018-03-21T00:11:31.281Z,99.90
2018-03-21T00:14:00.261Z,99.90
2018-03-21T00:16:29.170Z,99.90
2018-03-21T00:18:58.046Z,99.90
2018-03-21T00:21:26.911Z,99.90
2018-03-21T00:23:55.771Z,99.90
2018-03-21T00:26:25.378Z,99.90
2018-03-21T00:28:54.991Z,99.90
2018-03-21T00:31:24.620Z,99.90
2018-03-21T00:33:53.518Z,99.90
2018-03-21T00:36:22.316Z,99.90
2018-03-21T00:38:51.172Z,99.90
2018-03-21T00:41:20.778Z,99.90
2018-03-21T00:43:50.400Z,99.90
2018-03-21T00:46:19.285Z,99.90
2018-03-21T00:48:48.924Z,99.90
2018-03-21T00:51:17.800Z,99.90
2018-03-21T00:53:46.491Z,99.90
2018-03-21T00:56:15.366Z,99.90
2018-03-21T00:58:45.036Z,99.90
2018-03-21T01:01:13.869Z,99.90
2018-03-21T01:03:43.521Z,99.90
2018-03-21T01:06:12.024Z,99.90
2018-03-21T01:08:40.894Z,99.90
2018-03-21T01:11:09.790Z,99.90
2018-03-21T01:13:38.843Z,99.90
2018-03-21T01:16:07.697Z,99.90
2018-03-21T01:18:36.545Z,99.90
2018-03-21T01:21:05.151Z,99.90
2018-03-21T01:23:33.890Z,99.90
2018-03-21T01:26:02.725Z,99.90
2018-03-21T01:28:31.625Z,99.90
2018-03-21T01:31:00.520Z,99.90
2018-03-21T01:33:29.512Z,99.90
2018-03-21T01:35:58.351Z,99.90
2018-03-21T01:38:27.212Z,99.90
2018-03-21T01:40:56.049Z,99.90
2018-03-21T01:43:24.894Z,99.90
2018-03-21T01:45:53.742Z,99.90
2018-03-21T01:48:23.364Z,99.90
2018-03-21T01:50:53.014Z,99.90
2018-03-21T01:53:21.845Z,99.90
2018-03-21T01:55:50.656Z,99.90
2018-03-21T01:58:20.248Z,99.90
2018-03-21T02:00:49.070Z,99.90
2018-03-21T02:03:17.933Z,99.90
2018-03-21T02:05:46.773Z,99.90
2018-03-21T02:08:15.604Z,99.90
2018-03-21T02:10:44.464Z,99.90
2018-03-21T02:13:13.328Z,99.90
2018-03-21T02:15:42.958Z,99.90
2018-03-21T02:18:11.824Z,99.90
2018-03-21T02:20:41.437Z,99.90
2018-03-21T02:23:11.074Z,99.90
2018-03-21T02:25:39.941Z,99.90
2018-03-21T02:28:09.558Z,99.90
2018-03-21T02:30:39.445Z,99.90
2018-03-21T02:33:08.462Z,99.90
2018-03-21T02:35:38.089Z,99.90
2018-03-21T02:38:06.937Z,99.90
2018-03-21T02:40:35.784Z,99.90
2018-03-21T02:43:04.636Z,99.90
2018-03-21T02:45:33.498Z,99.90
2018-03-21T02:48:02.375Z,99.90
2018-03-21T02:50:31.232Z,99.90
2018-03-21T02:53:00.820Z,99.90
2018-03-21T02:55:29.678Z,99.90
2018-03-21T02:57:58.565Z,99.90
2018-03-21T03:00:27.640Z,99.90
2018-03-21T03:02:56.573Z,99.90
2018-03-21T03:05:25.405Z,99.90
2018-03-21T03:07:55.024Z,99.90
2018-03-21T03:10:24.630Z,99.90
2018-03-21T03:12:54.276Z,99.90
2018-03-21T03:15:23.123Z,99.90
2018-03-21T03:17:52.692Z,99.90
2018-03-21T03:20:21.599Z,99.90
2018-03-21T03:22:50.452Z,99.90
2018-03-21T03:25:19.311Z,99.90
2018-03-21T03:27:48.932Z,99.90
2018-03-21T03:30:17.639Z,99.90
2018-03-21T03:32:46.606Z,99.90
2018-03-21T03:35:15.464Z,99.90
2018-03-21T03:37:44.323Z,99.90
2018-03-21T03:40:13.206Z,99.90
2018-03-21T03:42:42.051Z,99.90
2018-03-21T03:45:10.906Z,99.90
2018-03-21T03:47:39.790Z,99.90
2018-03-21T03:50:08.619Z,99.90
2018-03-21T03:52:37.465Z,99.90
2018-03-21T03:55:06.317Z,99.90
2018-03-21T03:57:35.204Z,99.90
2018-03-21T04:00:03.769Z,99.90
2018-03-21T04:02:32.682Z,99.90
2018-03-21T04:05:01.586Z,99.90
2018-03-21T04:07:30.469Z,99.90
2018-03-21T04:09:59.354Z,99.90
2018-03-21T04:12:28.180Z,99.90
2018-03-21T04:14:57.830Z,99.90
2018-03-21T04:17:26.719Z,99.90
2018-03-21T04:19:55.477Z,99.90
2018-03-21T04:22:24.964Z,99.90
2018-03-21T04:24:53.784Z,99.90
2018-03-21T04:27:22.623Z,99.90
2018-03-21T04:29:51.466Z,99.90
2018-03-21T04:32:21.114Z,99.90
2018-03-21T04:34:50.000Z,99.90
2018-03-21T04:37:19.606Z,99.90
2018-03-21T04:39:48.471Z,99.90
2018-03-21T04:42:18.139Z,99.90
2018-03-21T04:44:46.806Z,99.90
2018-03-21T04:47:15.608Z,99.90
2018-03-21T04:49:44.472Z,99.90
2018-03-21T04:52:13.306Z,99.90
2018-03-21T04:54:42.026Z,99.90
2018-03-21T04:57:11.488Z,99.90
2018-03-21T04:59:40.207Z,99.90
2018-03-21T05:02:09.071Z,99.90
2018-03-21T05:04:38.006Z,99.90
2018-03-21T05:07:06.944Z,99.90
2018-03-21T05:09:35.783Z,99.90
2018-03-21T05:12:18.999Z,99.90
2018-03-21T05:14:47.857Z,99.90
2018-03-21T05:17:16.978Z,99.90
2018-03-21T05:19:45.861Z,99.90
2018-03-21T05:22:14.685Z,99.90
2018-03-21T05:24:43.539Z,99.90
2018-03-21T05:27:12.392Z,99.90
2018-03-21T05:29:42.009Z,99.90
2018-03-21T05:32:11.640Z,99.90
2018-03-21T05:34:40.515Z,99.90
2018-03-21T05:37:09.417Z,99.90
2018-03-21T05:39:39.131Z,99.90
2018-03-21T05:42:08.039Z,99.90
2018-03-21T05:44:36.923Z,99.90
2018-03-21T05:47:05.780Z,99.90
2018-03-21T05:49:43.151Z,99.90
2018-03-21T05:52:13.654Z,99.90
2018-03-21T05:54:42.536Z,99.90
2018-03-21T05:57:11.411Z,99.90
2018-03-21T05:59:41.019Z,99.90
2018-03-21T06:02:10.656Z,99.90
2018-03-21T06:04:39.517Z,99.90
2018-03-21T06:07:09.021Z,99.90
2018-03-21T06:09:38.621Z,99.90
2018-03-21T06:12:07.469Z,99.90
2018-03-21T06:14:36.321Z,99.90
2018-03-21T06:17:05.915Z,99.90
2018-03-21T06:19:34.778Z,99.90
2018-03-21T06:22:03.646Z,99.90
2018-03-21T06:24:32.497Z,99.90
2018-03-21T06:27:01.362Z,99.90
2018-03-21T06:29:30.207Z,99.90
2018-03-21T06:31:59.053Z,99.90
2018-03-21T06:34:27.931Z,99.90
2018-03-21T06:36:56.781Z,99.90
2018-03-21T06:39:25.644Z,99.90
2018-03-21T06:41:54.476Z,99.90
2018-03-21T06:44:23.395Z,99.90
2018-03-21T06:46:52.271Z,99.90
2018-03-21T06:49:21.122Z,99.90
2018-03-21T06:51:50.367Z,99.90
2018-03-21T06:54:19.233Z,99.90
2018-03-21T06:56:48.880Z,99.90
2018-03-21T06:59:20.813Z,99.90
2018-03-21T07:01:49.666Z,99.90
2018-03-21T07:04:18.547Z,99.90
2018-03-21T07:06:47.421Z,99.90
2018-03-21T07:09:16.323Z,99.90
2018-03-21T07:11:45.190Z,99.90
2018-03-21T07:14:25.134Z,99.90
2018-03-21T07:16:54.018Z,99.90
2018-03-21T07:19:23.633Z,99.90
2018-03-21T07:21:53.272Z,99.90
2018-03-21T07:24:22.164Z,99.90
2018-03-21T07:26:51.016Z,99.90
2018-03-21T07:29:19.885Z,99.90
2018-03-21T07:31:48.591Z,99.90
2018-03-21T07:34:18.245Z,99.90
2018-03-21T07:36:47.115Z,99.90
2018-03-21T07:39:16.756Z,99.90
2018-03-21T07:41:45.630Z,99.90
2018-03-21T07:44:14.536Z,99.90
2018-03-21T07:46:43.414Z,99.90
2018-03-21T07:49:12.114Z,99.90
2018-03-21T07:51:41.012Z,99.90
2018-03-21T07:54:09.874Z,99.90
2018-03-21T07:56:39.541Z,99.90
2018-03-21T07:59:08.371Z,99.90
2018-03-21T08:01:38.004Z,99.90
2018-03-21T08:04:06.871Z,99.90
2018-03-21T08:06:35.790Z,99.90
2018-03-21T08:09:04.108Z,99.90
2018-03-21T08:11:32.961Z,99.90
2018-03-21T08:14:09.154Z,99.90
2018-03-21T08:16:38.035Z,99.90
2018-03-21T08:19:06.606Z,99.90
2018-03-21T08:21:35.438Z,99.90
2018-03-21T08:24:04.012Z,99.90
2018-03-21T08:26:33.610Z,99.90
2018-03-21T08:29:02.535Z,99.90
2018-03-21T08:31:32.330Z,99.90
2018-03-21T08:34:01.300Z,99.90
2018-03-21T08:36:30.186Z,99.90
2018-03-21T08:38:59.147Z,99.90
2018-03-21T08:41:28.001Z,99.90
2018-03-21T08:43:56.888Z,99.90
2018-03-21T08:46:25.700Z,99.90
2018-03-21T08:48:54.582Z,99.90
2018-03-21T08:51:23.439Z,99.90
2018-03-21T08:53:52.744Z,99.90
2018-03-21T08:56:22.377Z,99.90
2018-03-21T08:58:51.211Z,99.90
2018-03-21T09:01:20.045Z,99.90
2018-03-21T09:03:49.702Z,99.90
2018-03-21T09:06:18.496Z,99.90
2018-03-21T09:08:47.353Z,99.90
2018-03-21T09:11:16.196Z,99.90
2018-03-21T09:13:45.067Z,99.90
2018-03-21T09:16:13.927Z,99.90
2018-03-21T09:18:42.756Z,99.90
2018-03-21T09:21:11.573Z,99.90
2018-03-21T09:23:40.448Z,99.90
2018-03-21T09:26:09.305Z,99.90
2018-03-21T09:28:38.096Z,99.90
2018-03-21T09:31:06.658Z,99.90
2018-03-21T09:33:35.267Z,99.90
2018-03-21T09:36:03.848Z,99.90
2018-03-21T09:38:32.417Z,99.90
2018-03-21T09:41:01.066Z,99.90
2018-03-21T09:43:29.740Z,99.90
2018-03-21T09:45:59.099Z,99.90
2018-03-21T09:48:27.673Z,99.90
2018-03-21T09:50:56.215Z,99.90
2018-03-21T09:53:24.806Z,99.90
2018-03-21T09:55:54.165Z,99.90
2018-03-21T09:58:23.680Z,98.70
2018-03-21T10:00:52.192Z,98.90
2018-03-21T10:03:20.775Z,99.30
2018-03-21T10:05:49.358Z,98.70
2018-03-21T10:08:17.922Z,95.80
2018-03-21T10:10:46.520Z,99.60
2018-03-21T10:13:15.043Z,93.10
2018-03-21T10:15:44.373Z,93.80
2018-03-21T10:18:12.978Z,93.70
2018-03-21T10:20:42.399Z,90.00
2018-03-21T10:23:11.011Z,91.40
2018-03-21T10:25:39.597Z,81.70
2018-03-21T10:28:08.185Z,61.70
2018-03-21T10:30:37.538Z,61.70
2018-03-21T10:33:05.944Z,60.80
2018-03-21T10:35:34.496Z,64.30
2018-03-21T10:38:03.044Z,58.50
2018-03-21T10:40:32.400Z,62.30
2018-03-21T10:43:00.845Z,62.70
2018-03-21T10:45:29.491Z,67.80
2018-03-21T10:47:58.067Z,65.50
2018-03-21T10:50:26.652Z,55.50
2018-03-21T10:52:55.237Z,49.90
2018-03-21T10:55:23.904Z,49.40
2018-03-21T10:57:52.468Z,46.90
2018-03-21T11:00:21.769Z,40.00
2018-03-21T11:02:56.556Z,37.50
2018-03-21T11:05:25.098Z,37.80
2018-03-21T11:07:53.618Z,39.80
2018-03-21T11:10:22.169Z,39.10
2018-03-21T11:12:52.888Z,37.30
2018-03-21T11:15:22.249Z,37.30
2018-03-21T11:17:50.859Z,37.30
2018-03-21T11:20:22.878Z,36.60
2018-03-21T11:22:51.504Z,35.70
2018-03-21T11:25:20.142Z,37.00
2018-03-21T14:57:56.553Z,28.80
2018-03-21T15:00:25.161Z,28.60
2018-03-21T15:02:53.587Z,29.10
2018-03-21T15:05:22.370Z,29.40
2018-03-21T15:07:51.061Z,29.40
2018-03-21T15:10:19.716Z,30.50
2018-03-21T15:12:48.272Z,31.40
2018-03-21T15:15:16.836Z,32.10
2018-03-21T15:17:45.491Z,32.50
2018-03-21T15:20:14.185Z,32.70
2018-03-21T15:22:42.782Z,32.60
2018-03-21T15:25:12.377Z,33.20
2018-03-21T15:27:40.948Z,33.20
2018-03-21T15:30:09.513Z,33.70
2018-03-21T15:32:38.081Z,34.80
2018-03-21T15:35:06.653Z,34.20
2018-03-21T15:37:35.215Z,34.10
2018-03-21T15:40:03.681Z,34.90
2018-03-21T15:42:32.220Z,34.70
2018-03-21T15:45:00.881Z,34.20
2018-03-21T15:47:29.523Z,33.60
2018-03-21T15:49:58.112Z,34.50
2018-03-21T15:52:26.721Z,35.00
2018-03-21T15:54:54.933Z,35.50
2018-03-21T15:57:23.616Z,36.30
2018-03-21T15:59:52.203Z,36.40
2018-03-21T16:02:20.784Z,36.60
2018-03-21T16:04:50.148Z,35.80
2018-03-21T16:07:18.791Z,35.70
2018-03-21T16:09:47.344Z,35.90
2018-03-21T16:12:15.936Z,35.70
2018-03-21T16:14:45.234Z,35.40
2018-03-21T16:17:13.836Z,35.40
2018-03-21T16:19:42.474Z,36.10
2018-03-21T16:22:25.786Z,36.40
2018-03-21T16:25:05.129Z,36.00
2018-03-21T16:27:33.783Z,37.20
2018-03-21T16:30:06.937Z,36.80
2018-03-21T16:32:35.558Z,36.70
2018-03-21T16:35:04.492Z,38.00
2018-03-21T16:37:33.065Z,38.00
2018-03-21T16:40:01.651Z,38.60
2018-03-21T16:42:30.296Z,38.90
2018-03-21T16:44:58.896Z,39.20
2018-03-21T16:47:28.263Z,41.70
2018-03-21T16:49:56.883Z,41.60
2018-03-21T16:52:25.468Z,41.60
2018-03-21T16:54:54.035Z,41.90
2018-03-21T16:57:22.623Z,42.70
2018-03-21T16:59:51.324Z,42.40
2018-03-21T17:02:19.916Z,43.00
2018-03-21T17:04:49.290Z,46.80
2018-03-21T17:07:17.880Z,46.90
2018-03-21T17:09:46.487Z,49.40
2018-03-21T17:12:15.935Z,53.70
2018-03-21T17:14:44.520Z,53.50
2018-03-21T17:17:13.111Z,56.70
2018-03-21T17:19:41.713Z,57.30
2018-03-21T17:22:11.218Z,62.30
2018-03-21T17:24:39.843Z,62.20
2018-03-21T17:27:08.441Z,64.50
2018-03-21T17:29:38.257Z,65.30
2018-03-21T17:32:08.396Z,70.10
2018-03-21T17:34:36.977Z,70.00
2018-03-21T17:37:05.646Z,74.20
2018-03-21T17:39:34.997Z,91.10
2018-03-21T17:42:04.758Z,91.30
2018-03-21T17:44:33.336Z,92.90
2018-03-21T17:50:02.046Z,97.70
2018-03-21T17:52:30.624Z,97.50
2018-03-21T17:54:59.209Z,99.30
2018-03-21T17:57:27.791Z,99.90
2018-03-21T18:00:07.129Z,99.90
2018-03-21T18:02:35.750Z,99.90
2018-03-21T18:05:05.095Z,99.90
2018-03-21T18:07:33.700Z,99.90
2018-03-21T18:10:02.274Z,99.90
2018-03-21T18:12:30.884Z,99.90
2018-03-21T18:14:59.457Z,99.90
2018-03-21T18:17:28.037Z,99.90
2018-03-21T18:19:56.693Z,99.90
2018-03-21T18:22:26.238Z,99.90
2018-03-21T18:24:54.841Z,99.90
2018-03-21T18:27:23.516Z,99.90
2018-03-21T18:29:53.433Z,99.90
2018-03-21T18:32:22.037Z,99.90
2018-03-21T18:34:50.636Z,99.90
2018-03-21T18:37:19.205Z,99.90
2018-03-21T18:39:48.350Z,99.90
2018-03-21T18:42:19.055Z,99.90
2018-03-21T18:44:47.656Z,99.90
2018-03-21T18:47:16.975Z,99.90
2018-03-21T18:49:46.343Z,99.90
2018-03-21T18:52:14.819Z,99.90
2018-03-21T18:54:43.278Z,99.90
2018-03-21T18:57:11.846Z,99.90
2018-03-21T18:59:40.575Z,99.90
2018-03-21T19:02:09.995Z,99.90
2018-03-21T19:04:38.687Z,99.90
2018-03-21T19:07:07.337Z,99.90
2018-03-21T19:09:36.029Z,99.90
2018-03-21T19:12:04.679Z,99.90
2018-03-21T19:14:36.973Z,99.90
2018-03-21T19:17:05.652Z,99.90
2018-03-21T19:19:34.277Z,99.90
2018-03-21T19:22:02.922Z,99.90
2018-03-21T19:24:31.678Z,99.90
2018-03-21T19:27:00.406Z,99.90
2018-03-21T19:29:30.140Z,99.90
2018-03-21T19:31:59.130Z,99.90
2018-03-21T19:34:27.888Z,99.90
2018-03-21T19:36:56.530Z,99.90
2018-03-21T19:39:25.156Z,99.90
2018-03-21T19:41:53.722Z,99.90
2018-03-21T19:44:22.346Z,99.90
2018-03-21T19:46:51.148Z,99.90
2018-03-21T19:49:20.101Z,99.90
2018-03-21T19:51:49.404Z,99.90
2018-03-21T19:54:18.020Z,99.90
2018-03-21T19:56:46.890Z,99.90
2018-03-21T19:59:15.819Z,99.90
2018-03-21T20:01:44.693Z,99.90
2018-03-21T20:04:13.363Z,99.90
2018-03-21T20:06:42.031Z,99.90
2018-03-21T20:09:10.961Z,99.90
2018-03-21T20:11:40.672Z,99.90
2018-03-21T20:14:09.549Z,99.90
2018-03-21T20:16:38.409Z,99.90
2018-03-21T20:19:07.294Z,99.90
2018-03-21T20:21:35.875Z,99.90
2018-03-21T20:24:04.766Z,99.90
2018-03-21T20:26:33.795Z,99.90
2018-03-21T20:29:02.634Z,99.90
2018-03-21T20:31:32.578Z,99.90
2018-03-21T20:34:01.454Z,99.90
2018-03-21T20:36:30.179Z,99.90
2018-03-21T20:38:59.190Z,99.90
2018-03-21T20:41:27.773Z,99.90
2018-03-21T20:43:56.678Z,99.90
2018-03-21T20:46:25.568Z,99.90
2018-03-21T20:48:54.490Z,99.90
2018-03-21T20:51:23.337Z,99.90
2018-03-21T20:53:52.203Z,99.90
2018-03-21T20:56:21.158Z,99.90
2018-03-21T20:58:50.236Z,99.90
2018-03-21T21:01:19.056Z,99.90
2018-03-21T21:03:47.928Z,99.90
2018-03-21T21:06:16.831Z,99.90
2018-03-21T21:08:45.693Z,99.90
2018-03-21T21:11:14.596Z,99.90
2018-03-21T21:13:43.403Z,99.90
2018-03-21T21:16:12.267Z,99.90
2018-03-21T21:18:41.085Z,99.90
2018-03-21T21:21:09.962Z,99.90
2018-03-21T21:23:57.269Z,99.90
2018-03-21T21:26:26.911Z,99.90
2018-03-21T21:28:55.768Z,99.90
2018-03-21T21:31:24.652Z,99.90
2018-03-21T21:33:54.456Z,99.90
2018-03-21T21:36:24.126Z,99.90
2018-03-21T21:38:54.689Z,99.90
2018-03-21T21:41:23.605Z,99.90
2018-03-21T21:43:52.476Z,99.90
2018-03-21T21:46:27.787Z,99.90
2018-03-21T21:48:56.880Z,99.90
2018-03-21T21:51:26.420Z,99.90
2018-03-21T21:53:55.336Z,99.90
2018-03-21T21:56:24.915Z,99.90
2018-03-21T21:58:57.958Z,99.90
2018-03-21T22:01:26.947Z,99.90
2018-03-21T22:03:55.900Z,99.90
2018-03-21T22:06:24.837Z,99.90
2018-03-21T22:09:02.077Z,99.90
2018-03-21T22:11:30.982Z,99.90
2018-03-21T22:13:59.882Z,99.90
2018-03-21T22:16:30.250Z,99.90
2018-03-21T22:18:59.156Z,99.90
2018-03-21T22:21:41.590Z,99.90
2018-03-21T22:24:10.668Z,99.90
2018-03-21T22:26:39.556Z,99.90
2018-03-21T22:29:08.410Z,99.90
2018-03-21T22:31:38.018Z,99.90
2018-03-21T22:34:07.664Z,99.90
2018-03-21T22:36:36.565Z,99.90
2018-03-21T22:39:04.845Z,99.90
2018-03-21T22:41:33.692Z,99.90
2018-03-21T22:44:03.340Z,99.90
2018-03-21T22:46:32.193Z,99.90
2018-03-21T22:49:01.890Z,99.90
2018-03-21T22:51:30.759Z,99.90
2018-03-21T22:53:59.620Z,99.90
2018-03-21T22:56:28.555Z,99.90
2018-03-21T22:58:57.424Z,99.90
2018-03-21T23:01:26.326Z,99.90
2018-03-21T23:03:55.195Z,99.90
2018-03-21T23:06:24.074Z,99.90
2018-03-21T23:09:00.272Z,99.90
2018-03-21T23:11:29.108Z,99.90
2018-03-21T23:13:57.968Z,99.90
2018-03-21T23:16:26.876Z,99.90
2018-03-21T23:18:55.724Z,99.90
2018-03-21T23:21:24.597Z,99.90
2018-03-21T23:23:53.466Z,99.90
2018-03-21T23:26:22.307Z,99.90
2018-03-21T23:28:51.259Z,99.90
2018-03-21T23:31:20.170Z,99.90
2018-03-21T23:33:49.864Z,99.90
2018-03-21T23:36:19.569Z,99.90
2018-03-21T23:38:48.424Z,99.90
2018-03-21T23:41:17.339Z,99.90
2018-03-21T23:43:46.212Z,99.90
2018-03-21T23:46:15.067Z,99.90
2018-03-21T23:48:44.894Z,99.90
2018-03-21T23:51:14.251Z,99.90
2018-03-21T23:53:43.187Z,99.90
2018-03-21T23:56:12.173Z,99.90
2018-03-21T23:58:41.039Z,99.90
